sensor_id;sensor_type;location;lat;lon;timestamp;P1;P2;P0
82622;PMS5003;72291;55.002;-1.592;2024-03-22T00:02:08;1;1;
82622;PMS5003;72291;55.002;-1.592;2024-03-22T00:04:33;0;0;
82622;PMS5003;72291;55.002;-1.592;2024-03-22T00:06:58;4;2;
82622;PMS5003;72291;55.002;-1.592;2024-03-22T00:09:24;11;7;
82622;PMS5003;72291;55.002;-1.592;2024-03-22T00:11:49;3;2;
82622;PMS5003;72291;55.002;-1.592;2024-03-22T00:14:15;2;1;
82622;PMS5003;72291;55.002;-1.592;2024-03-22T00:16:40;7;4;
82622;PMS5003;72291;55.002;-1.592;2024-03-22T00:19:05;2;2;
82622;PMS5003;72291;55.002;-1.592;2024-03-22T00:21:30;9;4;
82622;PMS5003;72291;55.002;-1.592;2024-03-22T00:23:55;3;3;
82622;PMS5003;72291;55.002;-1.592;2024-03-22T00:26:21;5;1;
82622;PMS5003;72291;55.002;-1.592;2024-03-22T00:28:46;10;6;
82622;PMS5003;72291;55.002;-1.592;2024-03-22T00:31:11;4;4;
82622;PMS5003;72291;55.002;-1.592;2024-03-22T00:33:36;6;6;
82622;PMS5003;72291;55.002;-1.592;2024-03-22T00:36:02;5;1;
82622;PMS5003;72291;55.002;-1.592;2024-03-22T00:38:27;4;3;
82622;PMS5003;72291;55.002;-1.592;2024-03-22T00:40:52;6;4;
82622;PMS5003;72291;55.002;-1.592;2024-03-22T00:43:17;7;5;
82622;PMS5003;72291;55.002;-1.592;2024-03-22T00:45:43;4;3;
82622;PMS5003;72291;55.002;-1.592;2024-03-22T00:48:08;9;8;
82622;PMS5003;72291;55.002;-1.592;2024-03-22T00:50:34;4;4;
82622;PMS5003;72291;55.002;-1.592;2024-03-22T00:52:59;9;4;
82622;PMS5003;72291;55.002;-1.592;2024-03-22T00:55:24;4;4;
82622;PMS5003;72291;55.002;-1.592;2024-03-22T00:57:50;11;6;
82622;PMS5003;72291;55.002;-1.592;2024-03-22T01:00:15;7;5;
82622;PMS5003;72291;55.002;-1.592;2024-03-22T01:02:40;9;8;
82622;PMS5003;72291;55.002;-1.592;2024-03-22T01:05:06;11;8;
82622;PMS5003;72291;55.002;-1.592;2024-03-22T01:07:31;10;7;
82622;PMS5003;72291;55.002;-1.592;2024-03-22T01:09:57;8;6;
82622;PMS5003;72291;55.002;-1.592;2024-03-22T01:12:22;8;6;
82622;PMS5003;72291;55.002;-1.592;2024-03-22T01:14:47;8;5;
82622;PMS5003;72291;55.002;-1.592;2024-03-22T01:17:12;15;11;
82622;PMS5003;72291;55.002;-1.592;2024-03-22T01:19:37;11;7;
82622;PMS5003;72291;55.002;-1.592;2024-03-22T01:22:03;11;6;
82622;PMS5003;72291;55.002;-1.592;2024-03-22T01:24:29;14;6;
82622;PMS5003;72291;55.002;-1.592;2024-03-22T01:26:54;9;8;
82622;PMS5003;72291;55.002;-1.592;2024-03-22T01:29:20;9;5;
82622;PMS5003;72291;55.002;-1.592;2024-03-22T01:31:45;10;6;
82622;PMS5003;72291;55.002;-1.592;2024-03-22T01:34:10;14;8;
82622;PMS5003;72291;55.002;-1.592;2024-03-22T01:36:36;11;9;
82622;PMS5003;72291;55.002;-1.592;2024-03-22T01:39:01;10;9;
82622;PMS5003;72291;55.002;-1.592;2024-03-22T01:41:26;14;10;
82622;PMS5003;72291;55.002;-1.592;2024-03-22T01:43:51;11;7;
82622;PMS5003;72291;55.002;-1.592;2024-03-22T01:46:17;9;7;
82622;PMS5003;72291;55.002;-1.592;2024-03-22T01:48:43;12;5;
82622;PMS5003;72291;55.002;-1.592;2024-03-22T01:51:08;19;9;
82622;PMS5003;72291;55.002;-1.592;2024-03-22T01:53:34;17;11;
82622;PMS5003;72291;55.002;-1.592;2024-03-22T01:55:59;12;9;
82622;PMS5003;72291;55.002;-1.592;2024-03-22T01:58:25;12;10;
82622;PMS5003;72291;55.002;-1.592;2024-03-22T02:00:50;11;8;
82622;PMS5003;72291;55.002;-1.592;2024-03-22T02:03:16;16;10;
82622;PMS5003;72291;55.002;-1.592;2024-03-22T02:05:41;13;7;
82622;PMS5003;72291;55.002;-1.592;2024-03-22T02:08:07;15;9;
82622;PMS5003;72291;55.002;-1.592;2024-03-22T02:10:32;7;6;
82622;PMS5003;72291;55.002;-1.592;2024-03-22T02:12:58;15;11;
82622;PMS5003;72291;55.002;-1.592;2024-03-22T02:15:23;9;5;
82622;PMS5003;72291;55.002;-1.592;2024-03-22T02:17:48;17;11;
82622;PMS5003;72291;55.002;-1.592;2024-03-22T02:20:14;12;8;
82622;PMS5003;72291;55.002;-1.592;2024-03-22T02:22:40;14;10;
82622;PMS5003;72291;55.002;-1.592;2024-03-22T02:25:05;27;14;
82622;PMS5003;72291;55.002;-1.592;2024-03-22T02:27:31;11;6;
82622;PMS5003;72291;55.002;-1.592;2024-03-22T02:29:57;15;9;
82622;PMS5003;72291;55.002;-1.592;2024-03-22T02:32:22;11;10;
82622;PMS5003;72291;55.002;-1.592;2024-03-22T02:34:48;13;11;
82622;PMS5003;72291;55.002;-1.592;2024-03-22T02:37:13;18;8;
82622;PMS5003;72291;55.002;-1.592;2024-03-22T02:39:39;17;14;
82622;PMS5003;72291;55.002;-1.592;2024-03-22T02:42:04;17;10;
82622;PMS5003;72291;55.002;-1.592;2024-03-22T02:44:29;11;7;
82622;PMS5003;72291;55.002;-1.592;2024-03-22T02:46:55;11;7;
82622;PMS5003;72291;55.002;-1.592;2024-03-22T02:49:20;15;9;
82622;PMS5003;72291;55.002;-1.592;2024-03-22T02:51:46;9;7;
82622;PMS5003;72291;55.002;-1.592;2024-03-22T02:54:11;17;11;
82622;PMS5003;72291;55.002;-1.592;2024-03-22T02:56:37;10;7;
82622;PMS5003;72291;55.002;-1.592;2024-03-22T02:59:02;7;7;
82622;PMS5003;72291;55.002;-1.592;2024-03-22T03:01:28;9;6;
82622;PMS5003;72291;55.002;-1.592;2024-03-22T03:03:59;15;8;
82622;PMS5003;72291;55.002;-1.592;2024-03-22T03:06:19;14;11;
82622;PMS5003;72291;55.002;-1.592;2024-03-22T03:08:45;8;6;
82622;PMS5003;72291;55.002;-1.592;2024-03-22T03:11:10;17;12;
82622;PMS5003;72291;55.002;-1.592;2024-03-22T03:13:35;14;10;
82622;PMS5003;72291;55.002;-1.592;2024-03-22T03:16:02;12;8;
82622;PMS5003;72291;55.002;-1.592;2024-03-22T03:18:26;18;10;
82622;PMS5003;72291;55.002;-1.592;2024-03-22T03:20:51;14;6;
82622;PMS5003;72291;55.002;-1.592;2024-03-22T03:23:17;7;5;
82622;PMS5003;72291;55.002;-1.592;2024-03-22T03:25:42;14;9;
82622;PMS5003;72291;55.002;-1.592;2024-03-22T03:28:07;13;8;
82622;PMS5003;72291;55.002;-1.592;2024-03-22T03:30:33;17;10;
82622;PMS5003;72291;55.002;-1.592;2024-03-22T03:32:58;12;6;
82622;PMS5003;72291;55.002;-1.592;2024-03-22T03:35:24;14;6;
82622;PMS5003;72291;55.002;-1.592;2024-03-22T03:37:49;11;8;
82622;PMS5003;72291;55.002;-1.592;2024-03-22T03:40:15;7;5;
82622;PMS5003;72291;55.002;-1.592;2024-03-22T03:42:40;16;6;
82622;PMS5003;72291;55.002;-1.592;2024-03-22T03:45:05;12;9;
82622;PMS5003;72291;55.002;-1.592;2024-03-22T03:47:30;8;6;
82622;PMS5003;72291;55.002;-1.592;2024-03-22T03:49:56;13;9;
82622;PMS5003;72291;55.002;-1.592;2024-03-22T03:52:22;13;9;
82622;PMS5003;72291;55.002;-1.592;2024-03-22T03:54:47;12;5;
82622;PMS5003;72291;55.002;-1.592;2024-03-22T03:57:13;10;6;
82622;PMS5003;72291;55.002;-1.592;2024-03-22T03:59:38;7;7;
82622;PMS5003;72291;55.002;-1.592;2024-03-22T04:02:03;13;9;
82622;PMS5003;72291;55.002;-1.592;2024-03-22T04:04:29;13;8;
82622;PMS5003;72291;55.002;-1.592;2024-03-22T04:06:54;9;9;
82622;PMS5003;72291;55.002;-1.592;2024-03-22T04:09:20;13;6;
82622;PMS5003;72291;55.002;-1.592;2024-03-22T04:11:45;14;7;
82622;PMS5003;72291;55.002;-1.592;2024-03-22T04:14:11;12;5;
82622;PMS5003;72291;55.002;-1.592;2024-03-22T04:16:36;6;4;
82622;PMS5003;72291;55.002;-1.592;2024-03-22T04:19:01;5;4;
82622;PMS5003;72291;55.002;-1.592;2024-03-22T04:21:26;18;12;
82622;PMS5003;72291;55.002;-1.592;2024-03-22T04:23:52;13;8;
82622;PMS5003;72291;55.002;-1.592;2024-03-22T04:26:18;8;5;
82622;PMS5003;72291;55.002;-1.592;2024-03-22T04:28:44;12;5;
82622;PMS5003;72291;55.002;-1.592;2024-03-22T04:31:09;9;6;
82622;PMS5003;72291;55.002;-1.592;2024-03-22T04:33:35;10;7;
82622;PMS5003;72291;55.002;-1.592;2024-03-22T04:36:00;10;6;
82622;PMS5003;72291;55.002;-1.592;2024-03-22T04:38:25;9;4;
82622;PMS5003;72291;55.002;-1.592;2024-03-22T04:40:51;13;5;
82622;PMS5003;72291;55.002;-1.592;2024-03-22T04:43:16;9;4;
82622;PMS5003;72291;55.002;-1.592;2024-03-22T04:45:41;7;4;
82622;PMS5003;72291;55.002;-1.592;2024-03-22T04:48:06;4;3;
82622;PMS5003;72291;55.002;-1.592;2024-03-22T04:50:31;8;3;
82622;PMS5003;72291;55.002;-1.592;2024-03-22T04:52:57;5;3;
82622;PMS5003;72291;55.002;-1.592;2024-03-22T04:55:22;12;8;
82622;PMS5003;72291;55.002;-1.592;2024-03-22T04:57:47;5;3;
82622;PMS5003;72291;55.002;-1.592;2024-03-22T05:00:13;1;1;
82622;PMS5003;72291;55.002;-1.592;2024-03-22T05:02:38;7;4;
82622;PMS5003;72291;55.002;-1.592;2024-03-22T05:05:04;6;2;
82622;PMS5003;72291;55.002;-1.592;2024-03-22T05:07:29;6;4;
82622;PMS5003;72291;55.002;-1.592;2024-03-22T05:09:54;6;2;
82622;PMS5003;72291;55.002;-1.592;2024-03-22T05:12:19;8;3;
82622;PMS5003;72291;55.002;-1.592;2024-03-22T05:14:45;8;6;
82622;PMS5003;72291;55.002;-1.592;2024-03-22T05:17:10;9;3;
82622;PMS5003;72291;55.002;-1.592;2024-03-22T05:19:35;7;6;
82622;PMS5003;72291;55.002;-1.592;2024-03-22T05:22:00;7;3;
82622;PMS5003;72291;55.002;-1.592;2024-03-22T05:24:25;5;4;
82622;PMS5003;72291;55.002;-1.592;2024-03-22T05:26:51;9;3;
82622;PMS5003;72291;55.002;-1.592;2024-03-22T05:29:16;6;4;
82622;PMS5003;72291;55.002;-1.592;2024-03-22T05:31:45;12;5;
82622;PMS5003;72291;55.002;-1.592;2024-03-22T05:34:06;4;1;
82622;PMS5003;72291;55.002;-1.592;2024-03-22T05:36:31;6;4;
82622;PMS5003;72291;55.002;-1.592;2024-03-22T05:38:58;6;3;
82622;PMS5003;72291;55.002;-1.592;2024-03-22T05:41:22;11;8;
82622;PMS5003;72291;55.002;-1.592;2024-03-22T05:43:48;8;5;
82622;PMS5003;72291;55.002;-1.592;2024-03-22T05:46:13;5;3;
82622;PMS5003;72291;55.002;-1.592;2024-03-22T05:48:39;5;4;
82622;PMS5003;72291;55.002;-1.592;2024-03-22T05:51:04;11;7;
82622;PMS5003;72291;55.002;-1.592;2024-03-22T05:53:30;12;6;
82622;PMS5003;72291;55.002;-1.592;2024-03-22T05:55:55;10;6;
82622;PMS5003;72291;55.002;-1.592;2024-03-22T05:58:21;9;5;
82622;PMS5003;72291;55.002;-1.592;2024-03-22T06:00:46;2;2;
82622;PMS5003;72291;55.002;-1.592;2024-03-22T06:03:12;11;5;
82622;PMS5003;72291;55.002;-1.592;2024-03-22T06:05:37;6;4;
82622;PMS5003;72291;55.002;-1.592;2024-03-22T06:08:03;11;6;
82622;PMS5003;72291;55.002;-1.592;2024-03-22T06:10:28;6;5;
82622;PMS5003;72291;55.002;-1.592;2024-03-22T06:12:54;5;3;
82622;PMS5003;72291;55.002;-1.592;2024-03-22T06:15:19;10;5;
82622;PMS5003;72291;55.002;-1.592;2024-03-22T06:17:45;14;8;
82622;PMS5003;72291;55.002;-1.592;2024-03-22T06:20:11;10;7;
82622;PMS5003;72291;55.002;-1.592;2024-03-22T06:22:36;7;3;
82622;PMS5003;72291;55.002;-1.592;2024-03-22T06:25:02;6;4;
82622;PMS5003;72291;55.002;-1.592;2024-03-22T06:27:27;8;5;
82622;PMS5003;72291;55.002;-1.592;2024-03-22T06:29:53;7;6;
82622;PMS5003;72291;55.002;-1.592;2024-03-22T06:32:19;8;4;
82622;PMS5003;72291;55.002;-1.592;2024-03-22T06:34:43;8;4;
82622;PMS5003;72291;55.002;-1.592;2024-03-22T06:37:08;4;4;
82622;PMS5003;72291;55.002;-1.592;2024-03-22T06:39:34;7;5;
82622;PMS5003;72291;55.002;-1.592;2024-03-22T06:41:59;7;4;
82622;PMS5003;72291;55.002;-1.592;2024-03-22T06:44:24;8;3;
82622;PMS5003;72291;55.002;-1.592;2024-03-22T06:46:50;8;5;
82622;PMS5003;72291;55.002;-1.592;2024-03-22T06:49:15;5;4;
82622;PMS5003;72291;55.002;-1.592;2024-03-22T06:51:40;7;4;
82622;PMS5003;72291;55.002;-1.592;2024-03-22T06:54:11;8;4;
82622;PMS5003;72291;55.002;-1.592;2024-03-22T06:56:31;11;5;
82622;PMS5003;72291;55.002;-1.592;2024-03-22T06:58:57;6;3;
82622;PMS5003;72291;55.002;-1.592;2024-03-22T07:01:22;6;4;
82622;PMS5003;72291;55.002;-1.592;2024-03-22T07:03:47;9;5;
82622;PMS5003;72291;55.002;-1.592;2024-03-22T07:06:13;7;5;
82622;PMS5003;72291;55.002;-1.592;2024-03-22T07:08:38;5;3;
82622;PMS5003;72291;55.002;-1.592;2024-03-22T07:11:04;4;2;
82622;PMS5003;72291;55.002;-1.592;2024-03-22T07:13:28;8;6;
82622;PMS5003;72291;55.002;-1.592;2024-03-22T07:15:54;7;3;
82622;PMS5003;72291;55.002;-1.592;2024-03-22T07:18:20;8;5;
82622;PMS5003;72291;55.002;-1.592;2024-03-22T07:20:45;6;5;
82622;PMS5003;72291;55.002;-1.592;2024-03-22T07:23:09;5;4;
82622;PMS5003;72291;55.002;-1.592;2024-03-22T07:25:35;9;4;
82622;PMS5003;72291;55.002;-1.592;2024-03-22T07:28:00;8;4;
82622;PMS5003;72291;55.002;-1.592;2024-03-22T07:30:25;2;2;
82622;PMS5003;72291;55.002;-1.592;2024-03-22T07:32:51;3;2;
82622;PMS5003;72291;55.002;-1.592;2024-03-22T07:35:17;3;2;
82622;PMS5003;72291;55.002;-1.592;2024-03-22T07:37:42;4;2;
82622;PMS5003;72291;55.002;-1.592;2024-03-22T07:40:07;9;4;
82622;PMS5003;72291;55.002;-1.592;2024-03-22T07:42:32;7;4;
82622;PMS5003;72291;55.002;-1.592;2024-03-22T07:45:03;7;3;
82622;PMS5003;72291;55.002;-1.592;2024-03-22T07:47:23;5;3;
82622;PMS5003;72291;55.002;-1.592;2024-03-22T07:49:48;3;2;
82622;PMS5003;72291;55.002;-1.592;2024-03-22T07:52:13;3;2;
82622;PMS5003;72291;55.002;-1.592;2024-03-22T07:54:39;3;2;
82622;PMS5003;72291;55.002;-1.592;2024-03-22T07:57:04;4;4;
82622;PMS5003;72291;55.002;-1.592;2024-03-22T07:59:30;4;4;
82622;PMS5003;72291;55.002;-1.592;2024-03-22T08:01:55;7;2;
82622;PMS5003;72291;55.002;-1.592;2024-03-22T08:04:20;3;2;
82622;PMS5003;72291;55.002;-1.592;2024-03-22T08:06:46;4;3;
82622;PMS5003;72291;55.002;-1.592;2024-03-22T08:09:11;8;2;
82622;PMS5003;72291;55.002;-1.592;2024-03-22T08:11:36;4;3;
82622;PMS5003;72291;55.002;-1.592;2024-03-22T08:14:01;7;4;
82622;PMS5003;72291;55.002;-1.592;2024-03-22T08:16:26;4;2;
82622;PMS5003;72291;55.002;-1.592;2024-03-22T08:18:52;7;5;
82622;PMS5003;72291;55.002;-1.592;2024-03-22T08:21:17;6;3;
82622;PMS5003;72291;55.002;-1.592;2024-03-22T08:23:42;6;2;
82622;PMS5003;72291;55.002;-1.592;2024-03-22T08:26:07;3;3;
82622;PMS5003;72291;55.002;-1.592;2024-03-22T08:28:32;3;2;
82622;PMS5003;72291;55.002;-1.592;2024-03-22T08:30:58;10;6;
82622;PMS5003;72291;55.002;-1.592;2024-03-22T08:33:23;4;3;
82622;PMS5003;72291;55.002;-1.592;2024-03-22T08:35:49;5;4;
82622;PMS5003;72291;55.002;-1.592;2024-03-22T08:38:14;5;3;
82622;PMS5003;72291;55.002;-1.592;2024-03-22T08:40:39;2;1;
82622;PMS5003;72291;55.002;-1.592;2024-03-22T08:43:05;6;2;
82622;PMS5003;72291;55.002;-1.592;2024-03-22T08:45:30;9;6;
82622;PMS5003;72291;55.002;-1.592;2024-03-22T08:47:55;3;2;
82622;PMS5003;72291;55.002;-1.592;2024-03-22T08:50:21;4;2;
82622;PMS5003;72291;55.002;-1.592;2024-03-22T08:52:47;9;5;
82622;PMS5003;72291;55.002;-1.592;2024-03-22T08:55:12;5;2;
82622;PMS5003;72291;55.002;-1.592;2024-03-22T08:57:37;5;4;
82622;PMS5003;72291;55.002;-1.592;2024-03-22T09:00:03;2;2;
82622;PMS5003;72291;55.002;-1.592;2024-03-22T09:02:28;5;4;
82622;PMS5003;72291;55.002;-1.592;2024-03-22T09:04:53;4;3;
82622;PMS5003;72291;55.002;-1.592;2024-03-22T09:07:19;5;2;
82622;PMS5003;72291;55.002;-1.592;2024-03-22T09:09:45;3;2;
82622;PMS5003;72291;55.002;-1.592;2024-03-22T09:12:09;3;1;
82622;PMS5003;72291;55.002;-1.592;2024-03-22T09:14:34;3;0;
82622;PMS5003;72291;55.002;-1.592;2024-03-22T09:16:59;4;1;
82622;PMS5003;72291;55.002;-1.592;2024-03-22T09:19:25;2;2;
82622;PMS5003;72291;55.002;-1.592;2024-03-22T09:21:50;2;1;
82622;PMS5003;72291;55.002;-1.592;2024-03-22T09:24:15;2;2;
82622;PMS5003;72291;55.002;-1.592;2024-03-22T09:26:40;2;0;
82622;PMS5003;72291;55.002;-1.592;2024-03-22T09:29:05;2;1;
82622;PMS5003;72291;55.002;-1.592;2024-03-22T09:31:31;2;1;
82622;PMS5003;72291;55.002;-1.592;2024-03-22T09:33:56;2;2;
82622;PMS5003;72291;55.002;-1.592;2024-03-22T09:36:21;3;1;
82622;PMS5003;72291;55.002;-1.592;2024-03-22T09:38:46;1;1;
82622;PMS5003;72291;55.002;-1.592;2024-03-22T09:41:12;2;1;
82622;PMS5003;72291;55.002;-1.592;2024-03-22T09:43:37;3;2;
82622;PMS5003;72291;55.002;-1.592;2024-03-22T09:46:02;2;1;
82622;PMS5003;72291;55.002;-1.592;2024-03-22T09:48:28;6;4;
82622;PMS5003;72291;55.002;-1.592;2024-03-22T09:50:52;3;1;
82622;PMS5003;72291;55.002;-1.592;2024-03-22T09:53:18;6;1;
82622;PMS5003;72291;55.002;-1.592;2024-03-22T09:55:43;4;2;
82622;PMS5003;72291;55.002;-1.592;2024-03-22T09:58:08;2;2;
82622;PMS5003;72291;55.002;-1.592;2024-03-22T10:00:33;4;3;
82622;PMS5003;72291;55.002;-1.592;2024-03-22T10:02:58;1;1;
82622;PMS5003;72291;55.002;-1.592;2024-03-22T10:05:24;4;3;
82622;PMS5003;72291;55.002;-1.592;2024-03-22T10:07:50;2;1;
82622;PMS5003;72291;55.002;-1.592;2024-03-22T10:10:14;3;1;
82622;PMS5003;72291;55.002;-1.592;2024-03-22T10:12:39;6;2;
82622;PMS5003;72291;55.002;-1.592;2024-03-22T10:15:05;3;2;
82622;PMS5003;72291;55.002;-1.592;2024-03-22T10:17:35;6;3;
82622;PMS5003;72291;55.002;-1.592;2024-03-22T10:19:56;1;1;
82622;PMS5003;72291;55.002;-1.592;2024-03-22T10:22:20;5;3;
82622;PMS5003;72291;55.002;-1.592;2024-03-22T10:24:46;2;1;
82622;PMS5003;72291;55.002;-1.592;2024-03-22T10:29:36;3;2;
82622;PMS5003;72291;55.002;-1.592;2024-03-22T10:32:01;3;2;
82622;PMS5003;72291;55.002;-1.592;2024-03-22T10:34:26;5;3;
82622;PMS5003;72291;55.002;-1.592;2024-03-22T10:36:52;2;1;
82622;PMS5003;72291;55.002;-1.592;2024-03-22T10:39:17;2;2;
82622;PMS5003;72291;55.002;-1.592;2024-03-22T10:41:42;3;1;
82622;PMS5003;72291;55.002;-1.592;2024-03-22T10:44:08;3;2;
82622;PMS5003;72291;55.002;-1.592;2024-03-22T10:46:33;4;2;
82622;PMS5003;72291;55.002;-1.592;2024-03-22T10:48:58;6;3;
82622;PMS5003;72291;55.002;-1.592;2024-03-22T10:51:24;2;0;
82622;PMS5003;72291;55.002;-1.592;2024-03-22T10:53:50;4;3;
82622;PMS5003;72291;55.002;-1.592;2024-03-22T10:56:15;5;3;
82622;PMS5003;72291;55.002;-1.592;2024-03-22T10:58:40;2;2;
82622;PMS5003;72291;55.002;-1.592;2024-03-22T11:01:05;4;1;
82622;PMS5003;72291;55.002;-1.592;2024-03-22T11:03:35;3;0;
82622;PMS5003;72291;55.002;-1.592;2024-03-22T11:05:55;3;2;
82622;PMS5003;72291;55.002;-1.592;2024-03-22T11:08:24;2;2;
82622;PMS5003;72291;55.002;-1.592;2024-03-22T11:10:45;5;2;
82622;PMS5003;72291;55.002;-1.592;2024-03-22T11:13:10;4;3;
82622;PMS5003;72291;55.002;-1.592;2024-03-22T11:15:36;4;2;
82622;PMS5003;72291;55.002;-1.592;2024-03-22T11:18:01;4;3;
82622;PMS5003;72291;55.002;-1.592;2024-03-22T11:20:26;4;2;
82622;PMS5003;72291;55.002;-1.592;2024-03-22T11:22:51;2;2;
82622;PMS5003;72291;55.002;-1.592;2024-03-22T11:25:16;0;0;
82622;PMS5003;72291;55.002;-1.592;2024-03-22T11:27:42;3;1;
82622;PMS5003;72291;55.002;-1.592;2024-03-22T11:30:07;1;0;
82622;PMS5003;72291;55.002;-1.592;2024-03-22T11:32:33;1;1;
82622;PMS5003;72291;55.002;-1.592;2024-03-22T11:34:58;0;0;
82622;PMS5003;72291;55.002;-1.592;2024-03-22T11:37:22;5;1;
82622;PMS5003;72291;55.002;-1.592;2024-03-22T11:39:47;4;1;
82622;PMS5003;72291;55.002;-1.592;2024-03-22T11:42:12;3;3;
82622;PMS5003;72291;55.002;-1.592;2024-03-22T11:44:37;3;0;
82622;PMS5003;72291;55.002;-1.592;2024-03-22T11:47:02;2;1;
82622;PMS5003;72291;55.002;-1.592;2024-03-22T11:49:29;3;1;
82622;PMS5003;72291;55.002;-1.592;2024-03-22T11:51:52;0;0;
82622;PMS5003;72291;55.002;-1.592;2024-03-22T11:54:19;1;1;
82622;PMS5003;72291;55.002;-1.592;2024-03-22T11:56:43;3;2;
82622;PMS5003;72291;55.002;-1.592;2024-03-22T11:59:08;2;0;
82622;PMS5003;72291;55.002;-1.592;2024-03-22T12:01:33;3;2;
82622;PMS5003;72291;55.002;-1.592;2024-03-22T12:04:02;2;1;
82622;PMS5003;72291;55.002;-1.592;2024-03-22T12:06:23;2;1;
82622;PMS5003;72291;55.002;-1.592;2024-03-22T12:08:48;1;0;
82622;PMS5003;72291;55.002;-1.592;2024-03-22T12:11:13;2;1;
82622;PMS5003;72291;55.002;-1.592;2024-03-22T12:13:38;4;1;
82622;PMS5003;72291;55.002;-1.592;2024-03-22T12:16:04;1;1;
82622;PMS5003;72291;55.002;-1.592;2024-03-22T12:18:29;4;3;
82622;PMS5003;72291;55.002;-1.592;2024-03-22T12:20:54;5;1;
82622;PMS5003;72291;55.002;-1.592;2024-03-22T12:23:19;1;0;
82622;PMS5003;72291;55.002;-1.592;2024-03-22T12:25:44;1;0;
82622;PMS5003;72291;55.002;-1.592;2024-03-22T12:28:09;2;2;
82622;PMS5003;72291;55.002;-1.592;2024-03-22T12:30:34;2;2;
82622;PMS5003;72291;55.002;-1.592;2024-03-22T12:33:00;1;0;
82622;PMS5003;72291;55.002;-1.592;2024-03-22T12:35:24;2;0;
82622;PMS5003;72291;55.002;-1.592;2024-03-22T12:37:50;3;0;
82622;PMS5003;72291;55.002;-1.592;2024-03-22T12:40:15;4;2;
82622;PMS5003;72291;55.002;-1.592;2024-03-22T12:42:40;0;0;
82622;PMS5003;72291;55.002;-1.592;2024-03-22T12:45:06;2;2;
82622;PMS5003;72291;55.002;-1.592;2024-03-22T12:47:31;0;0;
82622;PMS5003;72291;55.002;-1.592;2024-03-22T12:49:56;0;0;
82622;PMS5003;72291;55.002;-1.592;2024-03-22T12:52:21;1;1;
82622;PMS5003;72291;55.002;-1.592;2024-03-22T12:54:46;5;1;
82622;PMS5003;72291;55.002;-1.592;2024-03-22T12:57:11;4;2;
82622;PMS5003;72291;55.002;-1.592;2024-03-22T12:59:36;2;1;
82622;PMS5003;72291;55.002;-1.592;2024-03-22T13:02:02;0;0;
82622;PMS5003;72291;55.002;-1.592;2024-03-22T13:04:27;2;1;
82622;PMS5003;72291;55.002;-1.592;2024-03-22T13:06:52;1;0;
82622;PMS5003;72291;55.002;-1.592;2024-03-22T13:09:17;0;0;
82622;PMS5003;72291;55.002;-1.592;2024-03-22T13:11:42;1;1;
82622;PMS5003;72291;55.002;-1.592;2024-03-22T13:14:07;0;0;
82622;PMS5003;72291;55.002;-1.592;2024-03-22T13:16:32;2;1;
82622;PMS5003;72291;55.002;-1.592;2024-03-22T13:19:02;6;3;
82622;PMS5003;72291;55.002;-1.592;2024-03-22T13:21:23;3;1;
82622;PMS5003;72291;55.002;-1.592;2024-03-22T13:23:48;1;0;
82622;PMS5003;72291;55.002;-1.592;2024-03-22T13:26:13;2;1;
82622;PMS5003;72291;55.002;-1.592;2024-03-22T13:28:41;2;0;
82622;PMS5003;72291;55.002;-1.592;2024-03-22T13:31:03;2;2;
82622;PMS5003;72291;55.002;-1.592;2024-03-22T13:33:29;3;1;
82622;PMS5003;72291;55.002;-1.592;2024-03-22T13:35:53;1;1;
82622;PMS5003;72291;55.002;-1.592;2024-03-22T13:38:18;0;0;
82622;PMS5003;72291;55.002;-1.592;2024-03-22T13:40:43;1;1;
82622;PMS5003;72291;55.002;-1.592;2024-03-22T13:43:08;1;1;
82622;PMS5003;72291;55.002;-1.592;2024-03-22T13:45:38;1;0;
82622;PMS5003;72291;55.002;-1.592;2024-03-22T13:47:59;1;1;
82622;PMS5003;72291;55.002;-1.592;2024-03-22T13:50:24;2;0;
82622;PMS5003;72291;55.002;-1.592;2024-03-22T13:52:49;0;0;
82622;PMS5003;72291;55.002;-1.592;2024-03-22T13:55:14;0;0;
82622;PMS5003;72291;55.002;-1.592;2024-03-22T13:57:39;0;0;
82622;PMS5003;72291;55.002;-1.592;2024-03-22T14:00:05;2;1;
82622;PMS5003;72291;55.002;-1.592;2024-03-22T14:02:29;0;0;
82622;PMS5003;72291;55.002;-1.592;2024-03-22T14:04:55;1;0;
82622;PMS5003;72291;55.002;-1.592;2024-03-22T14:07:20;3;0;
82622;PMS5003;72291;55.002;-1.592;2024-03-22T14:09:46;1;1;
82622;PMS5003;72291;55.002;-1.592;2024-03-22T14:12:11;1;0;
82622;PMS5003;72291;55.002;-1.592;2024-03-22T14:14:36;2;2;
82622;PMS5003;72291;55.002;-1.592;2024-03-22T14:17:01;2;2;
82622;PMS5003;72291;55.002;-1.592;2024-03-22T14:19:26;2;1;
82622;PMS5003;72291;55.002;-1.592;2024-03-22T14:21:51;3;1;
82622;PMS5003;72291;55.002;-1.592;2024-03-22T14:24:16;2;1;
82622;PMS5003;72291;55.002;-1.592;2024-03-22T14:26:41;1;1;
82622;PMS5003;72291;55.002;-1.592;2024-03-22T14:29:07;5;1;
82622;PMS5003;72291;55.002;-1.592;2024-03-22T14:31:32;2;1;
82622;PMS5003;72291;55.002;-1.592;2024-03-22T14:33:58;1;0;
82622;PMS5003;72291;55.002;-1.592;2024-03-22T14:36:22;2;1;
82622;PMS5003;72291;55.002;-1.592;2024-03-22T14:38:47;2;1;
82622;PMS5003;72291;55.002;-1.592;2024-03-22T14:41:17;0;0;
82622;PMS5003;72291;55.002;-1.592;2024-03-22T14:43:37;0;0;
82622;PMS5003;72291;55.002;-1.592;2024-03-22T14:46:03;1;0;
82622;PMS5003;72291;55.002;-1.592;2024-03-22T14:48:28;1;0;
82622;PMS5003;72291;55.002;-1.592;2024-03-22T14:50:58;1;0;
82622;PMS5003;72291;55.002;-1.592;2024-03-22T14:53:18;2;1;
82622;PMS5003;72291;55.002;-1.592;2024-03-22T14:58:08;3;1;
82622;PMS5003;72291;55.002;-1.592;2024-03-22T15:00:33;0;0;
82622;PMS5003;72291;55.002;-1.592;2024-03-22T15:02:59;0;0;
82622;PMS5003;72291;55.002;-1.592;2024-03-22T15:05:24;1;1;
82622;PMS5003;72291;55.002;-1.592;2024-03-22T15:07:49;2;0;
82622;PMS5003;72291;55.002;-1.592;2024-03-22T15:10:18;3;1;
82622;PMS5003;72291;55.002;-1.592;2024-03-22T15:12:40;3;1;
82622;PMS5003;72291;55.002;-1.592;2024-03-22T15:15:05;3;1;
82622;PMS5003;72291;55.002;-1.592;2024-03-22T15:17:30;1;1;
82622;PMS5003;72291;55.002;-1.592;2024-03-22T15:19:55;3;1;
82622;PMS5003;72291;55.002;-1.592;2024-03-22T15:22:21;0;0;
82622;PMS5003;72291;55.002;-1.592;2024-03-22T15:24:46;0;0;
82622;PMS5003;72291;55.002;-1.592;2024-03-22T15:27:11;1;1;
82622;PMS5003;72291;55.002;-1.592;2024-03-22T15:29:36;0;0;
82622;PMS5003;72291;55.002;-1.592;2024-03-22T15:32:01;2;0;
82622;PMS5003;72291;55.002;-1.592;2024-03-22T15:34:26;2;0;
82622;PMS5003;72291;55.002;-1.592;2024-03-22T15:36:51;2;1;
82622;PMS5003;72291;55.002;-1.592;2024-03-22T15:39:16;2;0;
82622;PMS5003;72291;55.002;-1.592;2024-03-22T15:41:41;2;0;
82622;PMS5003;72291;55.002;-1.592;2024-03-22T15:44:07;1;1;
82622;PMS5003;72291;55.002;-1.592;2024-03-22T15:46:32;2;0;
82622;PMS5003;72291;55.002;-1.592;2024-03-22T15:48:57;4;2;
82622;PMS5003;72291;55.002;-1.592;2024-03-22T15:51:22;4;0;
82622;PMS5003;72291;55.002;-1.592;2024-03-22T15:53:47;1;0;
82622;PMS5003;72291;55.002;-1.592;2024-03-22T15:56:12;1;1;
82622;PMS5003;72291;55.002;-1.592;2024-03-22T15:58:38;1;0;
82622;PMS5003;72291;55.002;-1.592;2024-03-22T16:01:03;0;0;
82622;PMS5003;72291;55.002;-1.592;2024-03-22T16:03:28;1;1;
82622;PMS5003;72291;55.002;-1.592;2024-03-22T16:05:53;1;0;
82622;PMS5003;72291;55.002;-1.592;2024-03-22T16:08:18;3;2;
82622;PMS5003;72291;55.002;-1.592;2024-03-22T16:10:44;0;0;
82622;PMS5003;72291;55.002;-1.592;2024-03-22T16:13:08;2;1;
82622;PMS5003;72291;55.002;-1.592;2024-03-22T16:15:33;1;1;
82622;PMS5003;72291;55.002;-1.592;2024-03-22T16:17:59;1;1;
82622;PMS5003;72291;55.002;-1.592;2024-03-22T16:20:24;1;1;
82622;PMS5003;72291;55.002;-1.592;2024-03-22T16:22:49;3;1;